createdAt,value
2022-11-17T00:02:14.066Z,9.03
2022-11-17T00:04:41.982Z,9.06
2022-11-17T00:07:09.973Z,9.03
2022-11-17T00:09:37.835Z,9.03
2022-11-17T00:12:38.015Z,8.97
2022-11-17T00:15:06.518Z,9.00
2022-11-17T00:17:35.721Z,8.93
2022-11-17T00:20:21.141Z,8.94
2022-11-17T00:22:48.966Z,8.92
2022-11-17T00:25:17.014Z,8.93
2022-11-17T00:27:44.805Z,8.96
2022-11-17T00:30:33.596Z,8.98
2022-11-17T00:33:22.015Z,8.98
2022-11-17T00:35:54.674Z,8.99
2022-11-17T00:38:22.529Z,9.02
2022-11-17T00:40:50.459Z,9.07
2022-11-17T00:43:18.274Z,9.09
2022-11-17T00:45:46.071Z,9.02
2022-11-17T00:48:15.269Z,8.94
2022-11-17T00:50:43.165Z,8.89
2022-11-17T00:53:10.966Z,8.92
2022-11-17T00:55:38.898Z,8.87
2022-11-17T00:58:06.999Z,8.94
2022-11-17T01:00:34.807Z,9.00
2022-11-17T01:03:02.675Z,9.00
2022-11-17T01:05:33.193Z,8.99
2022-11-17T01:08:01.155Z,9.04
2022-11-17T01:10:28.953Z,9.04
2022-11-17T01:12:56.772Z,9.04
2022-11-17T01:15:25.003Z,9.08
2022-11-17T01:17:52.887Z,9.06
2022-11-17T01:20:21.114Z,9.06
2022-11-17T01:22:50.672Z,9.07
2022-11-17T01:25:18.755Z,9.08
2022-11-17T01:27:46.619Z,8.97
2022-11-17T01:30:17.756Z,8.92
2022-11-17T01:32:45.590Z,8.94
2022-11-17T01:35:13.534Z,8.98
2022-11-17T01:37:41.358Z,8.96
2022-11-17T01:40:13.519Z,8.96
2022-11-17T01:42:41.368Z,8.99
2022-11-17T01:45:20.081Z,8.98
2022-11-17T01:47:51.678Z,9.05
2022-11-17T01:50:29.494Z,9.12
2022-11-17T01:53:00.664Z,9.09
2022-11-17T01:55:35.142Z,9.11
2022-11-17T01:58:07.667Z,9.13
2022-11-17T02:00:35.859Z,9.19
2022-11-17T02:03:07.362Z,9.22
2022-11-17T02:05:42.598Z,9.27
2022-11-17T02:08:12.599Z,9.28
2022-11-17T02:10:48.594Z,9.27
2022-11-17T02:13:19.994Z,9.26
2022-11-17T02:15:48.011Z,9.25
2022-11-17T02:18:16.684Z,9.22
2022-11-17T02:20:54.161Z,9.22
2022-11-17T02:23:54.662Z,9.13
2022-11-17T02:26:42.030Z,9.16
2022-11-17T02:29:18.298Z,9.23
2022-11-17T02:31:54.829Z,9.24
2022-11-17T02:34:36.411Z,9.21
2022-11-17T02:37:11.368Z,9.25
2022-11-17T02:39:44.767Z,9.24
2022-11-17T02:42:20.044Z,9.21
2022-11-17T02:44:57.705Z,9.26
2022-11-17T02:47:29.394Z,9.27
2022-11-17T02:50:01.881Z,9.23
2022-11-17T02:52:31.231Z,9.28
2022-11-17T02:55:01.063Z,9.31
2022-11-17T02:57:30.060Z,9.31
2022-11-17T03:00:02.671Z,9.32
2022-11-17T03:02:44.046Z,9.28
2022-11-17T03:05:18.194Z,9.29
2022-11-17T03:07:58.998Z,9.31
2022-11-17T03:10:36.854Z,9.29
2022-11-17T03:13:13.955Z,9.31
2022-11-17T03:15:52.420Z,9.28
2022-11-17T03:18:24.299Z,9.27
2022-11-17T03:21:06.695Z,9.28
2022-11-17T03:23:42.223Z,9.36
2022-11-17T03:26:14.512Z,9.33
2022-11-17T03:28:44.846Z,9.30
2022-11-17T03:31:16.557Z,9.29
2022-11-17T03:33:48.914Z,9.28
2022-11-17T03:36:21.228Z,9.25
2022-11-17T03:38:56.403Z,9.30
2022-11-17T03:41:26.035Z,9.34
2022-11-17T03:43:57.685Z,9.32
2022-11-17T03:46:28.645Z,9.31
2022-11-17T03:49:01.554Z,9.35
2022-11-17T03:51:33.177Z,9.32
2022-11-17T03:54:02.112Z,9.33
2022-11-17T03:56:39.341Z,9.31
2022-11-17T03:59:12.594Z,9.32
2022-11-17T04:01:42.031Z,9.36
2022-11-17T04:04:15.471Z,9.36
2022-11-17T04:06:43.418Z,9.28
2022-11-17T04:09:11.244Z,9.23
2022-11-17T04:11:56.418Z,9.27
2022-11-17T04:14:41.999Z,9.33
2022-11-17T04:17:11.378Z,9.36
2022-11-17T04:19:39.379Z,9.35
2022-11-17T04:22:07.186Z,9.33
2022-11-17T04:24:35.015Z,9.32
2022-11-17T04:27:20.073Z,9.33
2022-11-17T04:29:47.895Z,9.36
2022-11-17T04:32:17.150Z,9.39
2022-11-17T04:34:44.946Z,9.38
2022-11-17T04:37:17.532Z,9.25
2022-11-17T04:39:46.023Z,9.27
2022-11-17T04:42:12.969Z,9.33
2022-11-17T04:44:40.897Z,9.36
2022-11-17T04:47:08.749Z,9.39
2022-11-17T04:49:37.936Z,9.36
2022-11-17T04:52:06.096Z,9.30
2022-11-17T04:54:33.913Z,9.28
2022-11-17T04:57:01.726Z,9.35
2022-11-17T04:59:29.558Z,9.37
2022-11-17T05:02:02.516Z,9.41
2022-11-17T05:04:50.959Z,9.41
2022-11-17T05:07:20.241Z,9.44
2022-11-17T05:09:48.111Z,9.46
2022-11-17T05:12:33.640Z,9.43
2022-11-17T05:15:01.439Z,9.38
2022-11-17T05:17:28.295Z,9.36
2022-11-17T05:19:57.706Z,9.36
2022-11-17T05:22:44.670Z,9.33
2022-11-17T05:25:12.689Z,9.29
2022-11-17T05:27:40.515Z,9.30
2022-11-17T05:30:10.259Z,9.32
2022-11-17T05:32:38.149Z,9.28
2022-11-17T05:35:06.823Z,9.23
2022-11-17T05:37:36.089Z,9.23
2022-11-17T05:40:03.930Z,9.18
2022-11-17T05:42:31.741Z,9.18
2022-11-17T05:44:59.611Z,9.23
2022-11-17T05:47:27.474Z,9.24
2022-11-17T05:49:55.288Z,9.25
2022-11-17T05:52:23.139Z,9.25
2022-11-17T05:54:52.319Z,9.22
2022-11-17T05:57:28.256Z,9.27
2022-11-17T06:00:04.502Z,9.34
2022-11-17T06:02:36.644Z,9.36
2022-11-17T06:05:05.087Z,9.37
2022-11-17T06:07:33.522Z,9.38
2022-11-17T06:10:02.764Z,9.43
2022-11-17T06:12:30.571Z,9.43
2022-11-17T06:14:58.415Z,9.43
2022-11-17T06:17:30.251Z,9.46
2022-11-17T06:20:04.071Z,9.49
2022-11-17T06:22:33.286Z,9.54
2022-11-17T06:25:04.007Z,9.60
2022-11-17T06:27:33.680Z,9.60
2022-11-17T06:30:04.443Z,9.60
2022-11-17T06:32:33.918Z,9.63
2022-11-17T06:35:02.611Z,9.68
2022-11-17T06:37:30.407Z,9.63
2022-11-17T06:39:58.268Z,9.60
2022-11-17T06:42:41.344Z,9.65
2022-11-17T06:45:10.258Z,9.66
2022-11-17T06:47:38.124Z,9.67
2022-11-17T06:50:06.679Z,9.76
2022-11-17T06:52:34.484Z,9.80
2022-11-17T06:55:02.442Z,9.82
2022-11-17T06:57:32.134Z,9.87
2022-11-17T07:00:00.040Z,9.87
2022-11-17T07:02:27.933Z,9.91
2022-11-17T07:04:55.829Z,10.01
2022-11-17T07:07:23.800Z,10.08
2022-11-17T07:09:51.820Z,10.10
2022-11-17T07:12:19.681Z,10.13
2022-11-17T07:14:49.127Z,10.13
2022-11-17T07:17:16.980Z,10.12
2022-11-17T07:19:44.885Z,10.09
2022-11-17T07:22:12.947Z,10.08
2022-11-17T07:24:41.209Z,10.10
2022-11-17T07:27:09.110Z,10.09
2022-11-17T07:29:37.085Z,10.13
2022-11-17T07:32:06.670Z,10.14
2022-11-17T07:34:34.541Z,10.16
2022-11-17T07:37:02.410Z,10.18
2022-11-17T07:39:30.299Z,10.21
2022-11-17T07:41:58.203Z,10.26
2022-11-17T07:44:26.121Z,10.31
2022-11-17T07:46:54.513Z,10.39
2022-11-17T07:49:23.992Z,10.46
2022-11-17T07:51:51.904Z,10.54
2022-11-17T07:54:19.817Z,10.61
2022-11-17T07:56:48.537Z,10.60
2022-11-17T07:59:21.232Z,10.60
2022-11-17T08:01:49.467Z,10.58
2022-11-17T08:04:17.292Z,10.52
2022-11-17T08:06:46.472Z,10.59
2022-11-17T08:09:15.869Z,10.66
2022-11-17T08:11:44.182Z,10.82
2022-11-17T08:14:12.103Z,10.92
2022-11-17T08:16:40.179Z,10.92
2022-11-17T08:19:08.069Z,10.87
2022-11-17T08:21:37.832Z,10.86
2022-11-17T08:24:08.985Z,10.73
2022-11-17T08:26:36.864Z,10.74
2022-11-17T08:32:55.910Z,10.72
2022-11-17T08:35:25.728Z,10.71
2022-11-17T08:37:53.622Z,10.71
2022-11-17T08:40:23.062Z,10.72
2022-11-17T08:43:00.332Z,10.76
2022-11-17T08:45:28.687Z,10.78
2022-11-17T08:47:57.623Z,10.93
2022-11-17T08:50:25.865Z,11.52
2022-11-17T08:52:53.922Z,12.13
2022-11-17T08:55:23.251Z,12.53
2022-11-17T08:57:51.230Z,13.18
2022-11-17T09:00:21.692Z,13.00
2022-11-17T09:02:50.722Z,12.73
2022-11-17T09:05:18.600Z,12.59
2022-11-17T09:07:46.588Z,12.38
2022-11-17T09:10:14.883Z,12.24
2022-11-17T09:12:44.203Z,12.13
2022-11-17T09:15:12.295Z,11.95
2022-11-17T09:17:40.469Z,11.75
2022-11-17T09:20:09.099Z,11.50
2022-11-17T09:22:38.236Z,11.24
2022-11-17T09:25:12.984Z,11.09
2022-11-17T09:27:41.337Z,11.08
2022-11-17T09:30:11.560Z,11.14
2022-11-17T09:36:19.942Z,11.25
2022-11-17T09:38:48.104Z,11.29
2022-11-17T09:41:26.370Z,11.26
2022-11-17T09:44:07.668Z,11.12
2022-11-17T09:46:56.168Z,11.03
2022-11-17T09:49:35.248Z,10.99
2022-11-17T09:52:08.256Z,11.01
2022-11-17T09:54:43.677Z,10.85
2022-11-17T09:57:21.181Z,11.03
2022-11-17T09:59:57.498Z,11.21
2022-11-17T10:02:27.133Z,11.19
2022-11-17T10:04:55.151Z,11.20
2022-11-17T10:07:23.344Z,11.27
2022-11-17T10:09:54.068Z,11.38
2022-11-17T10:12:26.177Z,11.37
2022-11-17T10:14:55.774Z,11.35
2022-11-17T10:17:23.607Z,11.20
2022-11-17T10:19:52.797Z,11.22
2022-11-17T10:22:33.826Z,11.35
2022-11-17T10:25:01.917Z,11.52
2022-11-17T10:27:31.798Z,11.68
2022-11-17T10:30:01.893Z,11.61
2022-11-17T10:32:31.427Z,11.67
2022-11-17T10:35:17.629Z,11.96
2022-11-17T10:37:55.510Z,12.13
2022-11-17T10:40:26.179Z,12.05
2022-11-17T10:43:06.469Z,11.88
2022-11-17T10:45:35.200Z,12.00
2022-11-17T10:48:11.450Z,12.05
2022-11-17T10:50:53.356Z,12.24
2022-11-17T10:53:25.211Z,12.09
2022-11-17T10:55:59.277Z,12.01
2022-11-17T10:58:29.295Z,11.90
2022-11-17T11:00:59.997Z,11.84
2022-11-17T11:03:30.126Z,11.62
2022-11-17T11:06:17.476Z,11.73
2022-11-17T11:08:52.937Z,11.75
2022-11-17T11:11:45.763Z,11.76
2022-11-17T11:14:19.653Z,11.93
2022-11-17T11:16:49.563Z,12.02
2022-11-17T11:19:19.272Z,11.96
2022-11-17T11:22:03.874Z,11.99
2022-11-17T11:24:40.156Z,12.26
2022-11-17T11:27:24.966Z,12.55
2022-11-17T11:30:02.450Z,12.45
2022-11-17T11:32:41.814Z,12.44
2022-11-17T11:35:34.440Z,12.66
2022-11-17T11:38:17.496Z,12.78
2022-11-17T11:40:53.970Z,13.02
2022-11-17T11:43:34.329Z,13.34
2022-11-17T11:46:12.044Z,13.51
2022-11-17T11:48:46.031Z,13.93
2022-11-17T11:51:18.658Z,13.95
2022-11-17T11:53:53.834Z,14.27
2022-11-17T11:56:27.660Z,14.59
2022-11-17T11:59:03.074Z,14.64
2022-11-17T12:01:40.588Z,14.68
2022-11-17T12:04:23.263Z,14.78
2022-11-17T12:06:58.155Z,14.83
2022-11-17T12:09:49.068Z,14.82
2022-11-17T12:12:19.206Z,14.82
2022-11-17T12:15:13.688Z,14.93
2022-11-17T12:17:59.816Z,14.74
2022-11-17T12:20:56.912Z,14.65
2022-11-17T12:23:34.724Z,14.74
2022-11-17T12:26:06.168Z,14.65
2022-11-17T12:28:36.536Z,14.56
2022-11-17T12:31:09.977Z,14.55
2022-11-17T12:34:11.063Z,14.47
2022-11-17T12:36:39.478Z,14.56
2022-11-17T12:39:27.835Z,14.55
2022-11-17T12:42:08.214Z,14.54
2022-11-17T12:44:45.212Z,15.19
2022-11-17T12:47:18.249Z,15.51
2022-11-17T12:49:56.865Z,15.36
2022-11-17T12:52:36.559Z,15.18
2022-11-17T12:55:18.120Z,15.20
2022-11-17T12:57:51.559Z,15.34
2022-11-17T13:00:25.181Z,15.43
2022-11-17T13:03:02.901Z,15.19
2022-11-17T13:05:31.828Z,15.35
2022-11-17T13:08:11.252Z,15.34
2022-11-17T13:10:39.174Z,15.45
2022-11-17T13:13:13.946Z,15.71
2022-11-17T13:15:43.621Z,15.84
2022-11-17T13:18:18.525Z,16.17
2022-11-17T13:20:49.942Z,16.17
2022-11-17T13:23:23.123Z,16.19
2022-11-17T13:25:51.734Z,16.08
2022-11-17T13:28:30.209Z,16.44
2022-11-17T13:30:58.400Z,16.74
2022-11-17T13:33:26.802Z,16.88
2022-11-17T13:36:09.862Z,16.99
2022-11-17T13:38:37.704Z,17.00
2022-11-17T13:41:07.255Z,17.01
2022-11-17T13:43:40.354Z,16.75
2022-11-17T13:46:09.371Z,16.62
2022-11-17T13:48:38.904Z,16.51
2022-11-17T13:51:23.933Z,16.27
2022-11-17T13:53:55.603Z,16.18
2022-11-17T13:56:34.776Z,16.24
2022-11-17T13:59:06.384Z,16.18
2022-11-17T14:01:34.440Z,16.13
2022-11-17T14:04:20.147Z,16.07
2022-11-17T14:06:56.714Z,15.96
2022-11-17T14:09:25.697Z,15.93
2022-11-17T14:11:53.936Z,15.84
2022-11-17T14:14:29.451Z,15.80
2022-11-17T14:16:58.440Z,15.69
2022-11-17T14:19:30.649Z,15.70
2022-11-17T14:22:04.278Z,15.57
2022-11-17T14:24:33.112Z,15.40
2022-11-17T14:27:01.492Z,15.28
2022-11-17T14:29:30.767Z,15.35
2022-11-17T14:31:58.785Z,15.28
2022-11-17T14:34:26.637Z,15.24
2022-11-17T14:36:56.262Z,15.18
2022-11-17T14:39:24.244Z,15.04
2022-11-17T14:41:52.460Z,15.10
2022-11-17T14:44:21.974Z,15.05
2022-11-17T14:46:51.169Z,14.99
2022-11-17T14:49:18.992Z,14.93
2022-11-17T14:51:49.540Z,14.86
2022-11-17T14:54:17.681Z,14.84
2022-11-17T14:56:45.509Z,14.79
2022-11-17T14:59:13.609Z,14.70
2022-11-17T15:01:42.655Z,14.63
2022-11-17T15:04:48.410Z,13.87
2022-11-17T15:07:04.845Z,14.44
2022-11-17T15:09:32.945Z,14.24
2022-11-17T15:12:00.769Z,14.00
2022-11-17T15:14:28.964Z,13.85
2022-11-17T15:16:56.914Z,13.75
2022-11-17T15:19:26.098Z,13.61
2022-11-17T15:21:53.942Z,13.56
2022-11-17T15:24:22.725Z,13.53
2022-11-17T15:26:50.561Z,13.53
2022-11-17T15:29:18.754Z,13.62
2022-11-17T15:31:46.860Z,13.56
2022-11-17T15:34:19.858Z,13.55
2022-11-17T15:36:49.915Z,13.59
2022-11-17T15:39:18.236Z,13.61
2022-11-17T15:41:46.428Z,13.55
2022-11-17T15:44:14.961Z,13.28
2022-11-17T15:46:47.416Z,13.40
2022-11-17T15:49:15.993Z,13.39
2022-11-17T15:51:44.053Z,13.24
2022-11-17T15:54:18.474Z,13.12
2022-11-17T15:56:48.692Z,13.08
2022-11-17T15:59:16.767Z,13.01
2022-11-17T16:01:45.027Z,12.94
2022-11-17T16:04:15.559Z,12.88
2022-11-17T16:06:45.274Z,12.93
2022-11-17T16:09:15.681Z,12.90
2022-11-17T16:11:44.162Z,12.87
2022-11-17T16:14:12.079Z,12.88
2022-11-17T16:16:40.711Z,12.86
2022-11-17T16:19:08.979Z,12.46
2022-11-17T16:21:36.856Z,12.68
2022-11-17T16:24:05.414Z,12.44
2022-11-17T17:19:52.481Z,11.89
2022-11-17T17:22:21.741Z,12.21
2022-11-17T17:24:49.579Z,12.22
2022-11-17T17:27:17.462Z,12.23
2022-11-17T17:29:45.304Z,12.21
2022-11-17T17:32:13.539Z,12.20
2022-11-17T17:34:41.402Z,12.20
2022-11-17T17:37:09.201Z,12.15
2022-11-17T17:39:38.380Z,12.05
2022-11-17T17:42:06.397Z,11.41
2022-11-17T17:44:34.301Z,12.04
2022-11-17T17:47:02.141Z,11.95
2022-11-17T17:49:30.047Z,11.99
2022-11-17T17:51:58.013Z,11.98
2022-11-17T17:54:26.136Z,11.76
2022-11-17T17:56:57.229Z,11.66
2022-11-17T17:59:25.091Z,11.67
2022-11-17T18:01:53.396Z,11.71
2022-11-17T18:04:21.432Z,11.73
2022-11-17T18:06:49.272Z,11.73
2022-11-17T18:09:19.469Z,11.48
2022-11-17T18:11:50.011Z,11.81
2022-11-17T18:14:24.555Z,11.80
2022-11-17T18:16:53.169Z,11.76
2022-11-17T18:19:21.209Z,11.49
2022-11-17T18:21:49.070Z,11.69
2022-11-17T18:24:17.088Z,11.68
2022-11-17T18:26:44.952Z,11.66
2022-11-17T18:29:16.370Z,11.67
2022-11-17T18:31:47.542Z,11.66
2022-11-17T18:34:18.882Z,11.51
2022-11-17T18:36:47.071Z,11.63
2022-11-17T18:39:16.224Z,11.61
2022-11-17T18:41:45.022Z,11.57
2022-11-17T18:44:13.795Z,11.58
2022-11-17T18:46:42.394Z,11.51
2022-11-17T18:49:12.052Z,11.56
2022-11-17T18:51:40.077Z,11.55
2022-11-17T18:54:09.148Z,11.56
2022-11-17T18:56:38.497Z,11.55
2022-11-17T18:59:11.551Z,11.53
2022-11-17T19:01:41.993Z,11.55
2022-11-17T19:04:13.101Z,11.51
2022-11-17T19:06:41.343Z,11.49
2022-11-17T19:09:09.577Z,11.47
2022-11-17T19:11:37.768Z,11.48
2022-11-17T19:14:06.325Z,11.32
2022-11-17T19:16:42.491Z,11.39
2022-11-17T19:19:15.220Z,11.20
2022-11-17T19:21:44.327Z,11.32
2022-11-17T19:24:13.815Z,11.29
2022-11-17T19:26:43.029Z,11.28
2022-11-17T19:29:17.273Z,11.26
2022-11-17T19:31:46.423Z,11.28
2022-11-17T19:34:16.591Z,11.21
2022-11-17T19:36:45.230Z,11.13
2022-11-17T19:39:14.854Z,11.06
2022-11-17T19:41:43.715Z,10.85
2022-11-17T19:44:12.277Z,10.89
2022-11-17T19:46:40.415Z,10.60
2022-11-17T19:49:08.818Z,10.51
2022-11-17T19:51:38.600Z,10.26
2022-11-17T19:54:08.485Z,10.11
2022-11-17T19:56:38.272Z,10.45
2022-11-17T19:59:09.714Z,10.18
2022-11-17T20:01:40.654Z,10.40
2022-11-17T20:04:09.027Z,10.30
2022-11-17T20:06:40.017Z,10.22
2022-11-17T20:09:09.684Z,10.26
2022-11-17T20:11:38.154Z,10.26
2022-11-17T20:14:06.514Z,10.29
2022-11-17T20:16:34.715Z,10.26
2022-11-17T20:19:03.798Z,10.33
2022-11-17T20:21:32.421Z,10.31
2022-11-17T20:24:02.465Z,10.28
2022-11-17T20:26:31.943Z,10.12
2022-11-17T20:29:00.865Z,10.19
2022-11-17T20:31:30.537Z,9.86
2022-11-17T20:34:00.798Z,9.52
2022-11-17T20:36:30.788Z,9.88
2022-11-17T20:39:00.232Z,9.39
2022-11-17T20:41:30.299Z,9.43
2022-11-17T20:44:00.061Z,9.68
2022-11-17T20:46:28.147Z,9.70
2022-11-17T20:48:55.998Z,9.90
2022-11-17T20:51:25.850Z,9.65
2022-11-17T20:53:53.900Z,9.86
2022-11-17T20:56:22.186Z,9.85
2022-11-17T20:58:51.449Z,9.89
2022-11-17T21:01:23.051Z,9.90
2022-11-17T21:03:51.325Z,9.90
2022-11-17T21:06:23.114Z,9.85
2022-11-17T21:08:51.504Z,9.91
2022-11-17T21:11:35.239Z,9.87
2022-11-17T21:14:05.889Z,9.83
2022-11-17T21:16:34.274Z,9.81
2022-11-17T21:19:02.144Z,9.85
2022-11-17T21:21:30.073Z,9.85
2022-11-17T21:23:57.945Z,9.85
2022-11-17T21:26:25.780Z,9.87
2022-11-17T21:28:53.705Z,9.86
2022-11-17T21:31:25.464Z,9.82
2022-11-17T21:33:55.005Z,9.44
2022-11-17T21:36:24.229Z,9.36
2022-11-17T21:38:52.511Z,9.21
2022-11-17T21:41:22.380Z,9.11
2022-11-17T21:43:51.739Z,9.06
2022-11-17T21:46:23.110Z,9.23
2022-11-17T21:48:51.982Z,9.04
2022-11-17T21:51:21.752Z,8.89
2022-11-17T21:53:53.665Z,8.55
2022-11-17T21:56:21.738Z,8.92
2022-11-17T21:58:49.541Z,8.71
2022-11-17T22:01:17.765Z,8.68
2022-11-17T22:03:47.073Z,8.59
2022-11-17T22:06:18.124Z,8.58
2022-11-17T22:08:47.663Z,8.57
2022-11-17T22:11:17.160Z,8.49
2022-11-17T22:13:45.037Z,8.67
2022-11-17T22:16:14.787Z,8.71
2022-11-17T22:18:42.844Z,8.75
2022-11-17T22:21:12.309Z,8.72
2022-11-17T22:23:40.229Z,8.74
2022-11-17T22:26:08.074Z,8.65
2022-11-17T22:28:35.969Z,8.53
2022-11-17T22:31:07.108Z,8.61
2022-11-17T22:33:35.105Z,8.59
2022-11-17T22:36:03.953Z,8.50
2022-11-17T22:38:34.029Z,8.36
2022-11-17T22:41:02.829Z,8.25
2022-11-17T22:43:31.310Z,8.48
2022-11-17T22:46:02.986Z,8.38
2022-11-17T22:48:31.759Z,8.58
2022-11-17T22:51:00.316Z,8.67
2022-11-17T22:53:28.654Z,8.45
2022-11-17T22:56:03.062Z,8.78
2022-11-17T22:58:31.381Z,8.87
2022-11-17T23:01:05.057Z,8.94
2022-11-17T23:03:33.012Z,9.00
2022-11-17T23:06:04.406Z,9.05
2022-11-17T23:08:32.877Z,8.88
2022-11-17T23:11:34.900Z,9.06
2022-11-17T23:13:51.061Z,8.95
2022-11-17T23:16:19.135Z,8.90
2022-11-17T23:18:47.212Z,8.87
2022-11-17T23:21:15.515Z,8.81
2022-11-17T23:23:43.558Z,8.99
2022-11-17T23:26:13.933Z,8.93
2022-11-17T23:28:42.969Z,8.79
2022-11-17T23:31:12.789Z,8.76
2022-11-17T23:33:41.965Z,8.68
2022-11-17T23:36:14.772Z,8.19
2022-11-17T23:38:42.955Z,8.38
2022-11-17T23:41:14.222Z,8.23
2022-11-17T23:43:42.732Z,8.29
2022-11-17T23:46:13.123Z,8.22
2022-11-17T23:48:41.155Z,7.96
2022-11-17T23:51:10.341Z,7.88
2022-11-17T23:53:38.242Z,8.07
2022-11-17T23:56:07.025Z,7.99
2022-11-17T23:58:36.776Z,8.03
